PWSweather.com
Personal Weather Stations
Station Observations
SUBOTICARS
SuboticaYU

SuboticaYU

Lat: 46.1296717, Lon: 19.641551

Elevation: 361

Station Type: Nexus

http://sumeteo.info

High Low Average
Temperature 68.2°F20.1°C 49.1°F9.5°C 57.2°F14.0°C
Dew Point 49.7°F9.8°C 33.2°F0.7°C 42.5°F5.8°C
Winds 12.7 mph 20.4 kmh 1.2 mph 1.9 kmh 5.0 mph W8.0 kmh W
Wind Gusts 15.0 mph24.1 kmh 1.2 mph1.9 kmh 6.0 mph9.7 kmh
Humidity 94% 31% 61%
Pressure 29.50 in999.0 mb 29.37 in994.6 mb -
Precipitation 0.00 in0.0 mm - -
Hour Temp Dew Point Humidity Winds Wind Gusts Pressure Precip Precip Rate Daily Precip Total
12:00 AM 49.3°F9.6°C 46.2°F7.9°C 89% 3.5 mph WNW5.6 kmh WNW 5.8 mph9.3 kmh 29.40 in995.6 mb - 0.00 in0.0 mm 0.00 in0.0 mm
12:10 AM 49.3°F9.6°C 46.2°F7.9°C 89% 4.6 mph NNW7.4 kmh NNW 8.1 mph13.0 kmh 29.40 in995.6 mb - 0.00 in0.0 mm 0.00 in0.0 mm
12:15 AM 49.3°F9.6°C 46.2°F7.9°C 89% 4.6 mph WNW7.4 kmh WNW 6.9 mph11.1 kmh 29.39 in995.3 mb - 0.00 in0.0 mm 0.00 in0.0 mm
12:20 AM 49.3°F9.6°C 46.2°F7.9°C 89% 3.5 mph WNW5.6 kmh WNW 3.5 mph5.6 kmh 29.39 in995.3 mb - 0.00 in0.0 mm 0.00 in0.0 mm
12:25 AM 49.3°F9.6°C 46.2°F7.9°C 89% 5.8 mph WNW9.3 kmh WNW 6.9 mph11.1 kmh 29.39 in995.3 mb - 0.00 in0.0 mm 0.00 in0.0 mm
12:30 AM 49.3°F9.6°C 46.2°F7.9°C 89% 4.6 mph WNW7.4 kmh WNW 8.1 mph13.0 kmh 29.39 in995.3 mb - 0.00 in0.0 mm 0.00 in0.0 mm
12:35 AM 49.3°F9.6°C 46.2°F7.9°C 89% 4.6 mph NW7.4 kmh NW 4.6 mph7.4 kmh 29.39 in995.3 mb - 0.00 in0.0 mm 0.00 in0.0 mm
12:40 AM 49.3°F9.6°C 46.2°F7.9°C 89% 5.8 mph WNW9.3 kmh WNW 5.8 mph9.3 kmh 29.39 in995.3 mb - 0.00 in0.0 mm 0.00 in0.0 mm
12:45 AM 49.3°F9.6°C 46.2°F7.9°C 89% 3.5 mph WSW5.6 kmh WSW 3.5 mph5.6 kmh 29.39 in995.3 mb - 0.00 in0.0 mm 0.00 in0.0 mm
12:50 AM 49.5°F9.7°C 46.4°F8.0°C 89% 4.6 mph WSW7.4 kmh WSW 5.8 mph9.3 kmh 29.39 in995.3 mb - 0.00 in0.0 mm 0.00 in0.0 mm
12:55 AM 49.5°F9.7°C 46.6°F8.1°C 90% 4.6 mph W7.4 kmh W 9.2 mph14.8 kmh 29.39 in995.3 mb - 0.00 in0.0 mm 0.00 in0.0 mm
01:00 AM 49.5°F9.7°C 46.4°F8.0°C 89% 4.6 mph WNW7.4 kmh WNW 3.5 mph5.6 kmh 29.39 in995.3 mb - 0.00 in0.0 mm 0.00 in0.0 mm
01:10 AM 49.6°F9.8°C 46.8°F8.2°C 90% 4.6 mph W7.4 kmh W 3.5 mph5.6 kmh 29.39 in995.3 mb - 0.00 in0.0 mm 0.00 in0.0 mm
01:15 AM 49.8°F9.9°C 47.3°F8.5°C 91% 4.6 mph WSW7.4 kmh WSW 6.9 mph11.1 kmh 29.39 in995.3 mb - 0.00 in0.0 mm 0.00 in0.0 mm
01:20 AM 49.8°F9.9°C 47.3°F8.5°C 91% 4.6 mph NW7.4 kmh NW 5.8 mph9.3 kmh 29.39 in995.3 mb - 0.00 in0.0 mm 0.00 in0.0 mm
01:25 AM 49.8°F9.9°C 47.3°F8.5°C 91% 3.5 mph WNW5.6 kmh WNW 5.8 mph9.3 kmh 29.39 in995.3 mb - 0.00 in0.0 mm 0.00 in0.0 mm
01:30 AM 50.0°F10.0°C 47.2°F8.4°C 90% 3.5 mph WSW5.6 kmh WSW 3.5 mph5.6 kmh 29.39 in995.3 mb - 0.00 in0.0 mm 0.00 in0.0 mm
01:35 AM 50.0°F10.0°C 47.2°F8.4°C 90% 3.5 mph NNW5.6 kmh NNW 3.5 mph5.6 kmh 29.39 in995.3 mb - 0.00 in0.0 mm 0.00 in0.0 mm
01:40 AM 50.0°F10.0°C 47.2°F8.4°C 90% 3.5 mph NNW5.6 kmh NNW 5.8 mph9.3 kmh 29.39 in995.3 mb - 0.00 in0.0 mm 0.00 in0.0 mm
01:45 AM 50.0°F10.0°C 47.2°F8.4°C 90% 4.6 mph W7.4 kmh W 4.6 mph7.4 kmh 29.39 in995.3 mb - 0.00 in0.0 mm 0.00 in0.0 mm
01:50 AM 50.2°F10.1°C 47.4°F8.6°C 90% 4.6 mph NW7.4 kmh NW 5.8 mph9.3 kmh 29.39 in995.3 mb - 0.00 in0.0 mm 0.00 in0.0 mm
01:55 AM 50.2°F10.1°C 47.7°F8.7°C 91% 5.8 mph WNW9.3 kmh WNW 6.9 mph11.1 kmh 29.39 in995.3 mb - 0.00 in0.0 mm 0.00 in0.0 mm
02:00 AM 50.2°F10.1°C 47.7°F8.7°C 91% 3.5 mph WSW5.6 kmh WSW 3.5 mph5.6 kmh 29.39 in995.3 mb - 0.00 in0.0 mm 0.00 in0.0 mm
02:10 AM 50.4°F10.2°C 47.5°F8.6°C 90% 2.3 mph WNW3.7 kmh WNW 5.8 mph9.3 kmh 29.39 in995.3 mb - 0.00 in0.0 mm 0.00 in0.0 mm
02:15 AM 50.4°F10.2°C 47.5°F8.6°C 90% 2.3 mph WNW3.7 kmh WNW 4.6 mph7.4 kmh 29.38 in994.9 mb - 0.00 in0.0 mm 0.00 in0.0 mm
02:20 AM 50.4°F10.2°C 47.5°F8.6°C 90% 3.5 mph WNW5.6 kmh WNW 3.5 mph5.6 kmh 29.38 in994.9 mb - 0.00 in0.0 mm 0.00 in0.0 mm
02:25 AM 50.4°F10.2°C 47.5°F8.6°C 90% 3.5 mph W5.6 kmh W 3.5 mph5.6 kmh 29.38 in994.9 mb - 0.00 in0.0 mm 0.00 in0.0 mm
02:30 AM 50.4°F10.2°C 47.8°F8.8°C 91% 3.5 mph NW5.6 kmh NW 4.6 mph7.4 kmh 29.38 in994.9 mb - 0.00 in0.0 mm 0.00 in0.0 mm
02:35 AM 50.5°F10.3°C 48.0°F8.9°C 91% 3.5 mph WNW5.6 kmh WNW 5.8 mph9.3 kmh 29.38 in994.9 mb - 0.00 in0.0 mm 0.00 in0.0 mm
02:40 AM 50.5°F10.3°C 48.0°F8.9°C 91% 3.5 mph W5.6 kmh W 3.5 mph5.6 kmh 29.38 in994.9 mb - 0.00 in0.0 mm 0.00 in0.0 mm
02:45 AM 50.5°F10.3°C 48.0°F8.9°C 91% 3.5 mph W5.6 kmh W 3.5 mph5.6 kmh 29.38 in994.9 mb - 0.00 in0.0 mm 0.00 in0.0 mm
02:50 AM 50.5°F10.3°C 48.0°F8.9°C 91% 3.5 mph W5.6 kmh W 5.8 mph9.3 kmh 29.38 in994.9 mb - 0.00 in0.0 mm 0.00 in0.0 mm
02:55 AM 50.7°F10.4°C 48.2°F9.0°C 91% 3.5 mph NW5.6 kmh NW 3.5 mph5.6 kmh 29.38 in994.9 mb - 0.00 in0.0 mm 0.00 in0.0 mm
03:00 AM 50.5°F10.3°C 48.0°F8.9°C 91% 2.3 mph NW3.7 kmh NW 4.6 mph7.4 kmh 29.38 in994.9 mb - 0.00 in0.0 mm 0.00 in0.0 mm
03:10 AM 50.5°F10.3°C 48.3°F9.1°C 92% 3.5 mph WNW5.6 kmh WNW 3.5 mph5.6 kmh 29.38 in994.9 mb - 0.00 in0.0 mm 0.00 in0.0 mm
03:15 AM 50.4°F10.2°C 47.8°F8.8°C 91% 3.5 mph WNW5.6 kmh WNW 4.6 mph7.4 kmh 29.38 in994.9 mb - 0.00 in0.0 mm 0.00 in0.0 mm
03:20 AM 50.4°F10.2°C 48.1°F8.9°C 92% 2.3 mph NW3.7 kmh NW 4.6 mph7.4 kmh 29.38 in994.9 mb - 0.00 in0.0 mm 0.00 in0.0 mm
03:25 AM 50.4°F10.2°C 48.1°F8.9°C 92% 3.5 mph W5.6 kmh W 4.6 mph7.4 kmh 29.38 in994.9 mb - 0.00 in0.0 mm 0.00 in0.0 mm
03:30 AM 50.2°F10.1°C 48.0°F8.9°C 92% 3.5 mph WNW5.6 kmh WNW 3.5 mph5.6 kmh 29.37 in994.6 mb - 0.00 in0.0 mm 0.00 in0.0 mm
03:35 AM 50.2°F10.1°C 47.7°F8.7°C 91% 2.3 mph WNW3.7 kmh WNW 3.5 mph5.6 kmh 29.37 in994.6 mb - 0.00 in0.0 mm 0.00 in0.0 mm
03:40 AM 50.0°F10.0°C 47.5°F8.6°C 91% 2.3 mph WNW3.7 kmh WNW 4.6 mph7.4 kmh 29.37 in994.6 mb - 0.00 in0.0 mm 0.00 in0.0 mm
03:45 AM 50.0°F10.0°C 47.5°F8.6°C 91% 3.5 mph NW5.6 kmh NW 5.8 mph9.3 kmh 29.37 in994.6 mb - 0.00 in0.0 mm 0.00 in0.0 mm
03:50 AM 50.0°F10.0°C 47.5°F8.6°C 91% 2.3 mph WSW3.7 kmh WSW 3.5 mph5.6 kmh 29.37 in994.6 mb - 0.00 in0.0 mm 0.00 in0.0 mm
03:55 AM 50.0°F10.0°C 47.5°F8.6°C 91% 3.5 mph WNW5.6 kmh WNW 3.5 mph5.6 kmh 29.37 in994.6 mb - 0.00 in0.0 mm 0.00 in0.0 mm
04:00 AM 49.8°F9.9°C 47.3°F8.5°C 91% 3.5 mph WNW5.6 kmh WNW 4.6 mph7.4 kmh 29.38 in994.9 mb - 0.00 in0.0 mm 0.00 in0.0 mm
04:10 AM 49.8°F9.9°C 47.3°F8.5°C 91% 3.5 mph WNW5.6 kmh WNW 3.5 mph5.6 kmh 29.38 in994.9 mb - 0.00 in0.0 mm 0.00 in0.0 mm
04:15 AM 49.6°F9.8°C 47.1°F8.4°C 91% 2.3 mph W3.7 kmh W 3.5 mph5.6 kmh 29.37 in994.6 mb - 0.00 in0.0 mm 0.00 in0.0 mm
04:20 AM 49.5°F9.7°C 46.9°F8.3°C 91% 2.3 mph WNW3.7 kmh WNW 1.2 mph1.9 kmh 29.37 in994.6 mb - 0.00 in0.0 mm 0.00 in0.0 mm
04:25 AM 49.5°F9.7°C 46.9°F8.3°C 91% 2.3 mph NW3.7 kmh NW 3.5 mph5.6 kmh 29.37 in994.6 mb - 0.00 in0.0 mm 0.00 in0.0 mm
04:30 AM 49.3°F9.6°C 46.8°F8.2°C 91% 2.3 mph WNW3.7 kmh WNW 4.6 mph7.4 kmh 29.37 in994.6 mb - 0.00 in0.0 mm 0.00 in0.0 mm
04:35 AM 49.1°F9.5°C 46.6°F8.1°C 91% 2.3 mph NW3.7 kmh NW 3.5 mph5.6 kmh 29.37 in994.6 mb - 0.00 in0.0 mm 0.00 in0.0 mm
04:40 AM 49.1°F9.5°C 46.6°F8.1°C 91% 3.5 mph WNW5.6 kmh WNW 5.8 mph9.3 kmh 29.37 in994.6 mb - 0.00 in0.0 mm 0.00 in0.0 mm
04:45 AM 49.1°F9.5°C 46.6°F8.1°C 91% 3.5 mph NW5.6 kmh NW 3.5 mph5.6 kmh 29.38 in994.9 mb - 0.00 in0.0 mm 0.00 in0.0 mm
04:50 AM 49.1°F9.5°C 46.6°F8.1°C 91% 3.5 mph WNW5.6 kmh WNW 3.5 mph5.6 kmh 29.38 in994.9 mb - 0.00 in0.0 mm 0.00 in0.0 mm
04:55 AM 49.1°F9.5°C 46.9°F8.3°C 92% 3.5 mph NW5.6 kmh NW 6.9 mph11.1 kmh 29.38 in994.9 mb - 0.00 in0.0 mm 0.00 in0.0 mm
05:00 AM 49.1°F9.5°C 46.9°F8.3°C 92% 3.5 mph W5.6 kmh W 3.5 mph5.6 kmh 29.38 in994.9 mb - 0.00 in0.0 mm 0.00 in0.0 mm
05:10 AM 49.5°F9.7°C 47.2°F8.4°C 92% 2.3 mph WNW3.7 kmh WNW 4.6 mph7.4 kmh 29.38 in994.9 mb - 0.00 in0.0 mm 0.00 in0.0 mm
05:15 AM 49.6°F9.8°C 47.4°F8.6°C 92% 4.6 mph WNW7.4 kmh WNW 3.5 mph5.6 kmh 29.38 in994.9 mb - 0.00 in0.0 mm 0.00 in0.0 mm
05:20 AM 49.6°F9.8°C 47.4°F8.6°C 92% 3.5 mph WNW5.6 kmh WNW 3.5 mph5.6 kmh 29.38 in994.9 mb - 0.00 in0.0 mm 0.00 in0.0 mm
05:25 AM 49.8°F9.9°C 48.2°F9.0°C 94% 3.5 mph NW5.6 kmh NW 3.5 mph5.6 kmh 29.38 in994.9 mb - 0.00 in0.0 mm 0.00 in0.0 mm
05:30 AM 50.2°F10.1°C 48.5°F9.2°C 94% 3.5 mph NW5.6 kmh NW 5.8 mph9.3 kmh 29.38 in994.9 mb - 0.00 in0.0 mm 0.00 in0.0 mm
05:35 AM 50.4°F10.2°C 48.7°F9.3°C 94% 3.5 mph WNW5.6 kmh WNW 4.6 mph7.4 kmh 29.38 in994.9 mb - 0.00 in0.0 mm 0.00 in0.0 mm
05:40 AM 50.6°F10.3°C 48.9°F9.4°C 94% 4.6 mph NW7.4 kmh NW 5.8 mph9.3 kmh 29.38 in994.9 mb - 0.00 in0.0 mm 0.00 in0.0 mm
05:45 AM 50.9°F10.5°C 49.2°F9.6°C 94% 3.5 mph WSW5.6 kmh WSW 4.6 mph7.4 kmh 29.39 in995.3 mb - 0.00 in0.0 mm 0.00 in0.0 mm
05:50 AM 51.1°F10.6°C 49.4°F9.7°C 94% 3.5 mph NNW5.6 kmh NNW 4.6 mph7.4 kmh 29.39 in995.3 mb - 0.00 in0.0 mm 0.00 in0.0 mm
05:55 AM 51.6°F10.9°C 49.4°F9.7°C 92% 4.6 mph NNW7.4 kmh NNW 4.6 mph7.4 kmh 29.39 in995.3 mb - 0.00 in0.0 mm 0.00 in0.0 mm
06:00 AM 51.8°F11.0°C 49.2°F9.6°C 91% 5.8 mph W9.3 kmh W 6.9 mph11.1 kmh 29.39 in995.3 mb - 0.00 in0.0 mm 0.00 in0.0 mm
06:10 AM 51.8°F11.0°C 48.7°F9.3°C 89% 4.6 mph NW7.4 kmh NW 5.8 mph9.3 kmh 29.39 in995.3 mb - 0.00 in0.0 mm 0.00 in0.0 mm
06:15 AM 51.8°F11.0°C 48.4°F9.1°C 88% 4.6 mph NW7.4 kmh NW 6.9 mph11.1 kmh 29.39 in995.3 mb - 0.00 in0.0 mm 0.00 in0.0 mm
06:20 AM 52.2°F11.2°C 48.7°F9.3°C 88% 3.5 mph NW5.6 kmh NW 3.5 mph5.6 kmh 29.39 in995.3 mb - 0.00 in0.0 mm 0.00 in0.0 mm
06:25 AM 53.0°F11.7°C 49.0°F9.4°C 86% 6.9 mph NW11.1 kmh NW 5.8 mph9.3 kmh 29.39 in995.3 mb - 0.00 in0.0 mm 0.00 in0.0 mm
06:30 AM 53.1°F11.7°C 48.7°F9.3°C 85% 6.9 mph NW11.1 kmh NW 10.4 mph16.7 kmh 29.39 in995.3 mb - 0.00 in0.0 mm 0.00 in0.0 mm
06:35 AM 53.0°F11.7°C 47.9°F8.8°C 83% 4.6 mph NW7.4 kmh NW 4.6 mph7.4 kmh 29.39 in995.3 mb - 0.00 in0.0 mm 0.00 in0.0 mm
06:40 AM 53.2°F11.8°C 48.2°F9.0°C 83% 5.8 mph NW9.3 kmh NW 6.9 mph11.1 kmh 29.39 in995.3 mb - 0.00 in0.0 mm 0.00 in0.0 mm
06:45 AM 53.2°F11.8°C 47.9°F8.8°C 82% 4.6 mph NW7.4 kmh NW 5.8 mph9.3 kmh 29.39 in995.3 mb - 0.00 in0.0 mm 0.00 in0.0 mm
06:50 AM 53.6°F12.0°C 47.6°F8.7°C 80% 5.8 mph NW9.3 kmh NW 4.6 mph7.4 kmh 29.39 in995.3 mb - 0.00 in0.0 mm 0.00 in0.0 mm
06:55 AM 53.6°F12.0°C 47.9°F8.8°C 81% 5.8 mph NW9.3 kmh NW 8.1 mph13.0 kmh 29.39 in995.3 mb - 0.00 in0.0 mm 0.00 in0.0 mm
07:00 AM 53.7°F12.1°C 48.0°F8.9°C 81% 3.5 mph NNW5.6 kmh NNW 5.8 mph9.3 kmh 29.41 in995.9 mb - 0.00 in0.0 mm 0.00 in0.0 mm
07:10 AM 54.3°F12.4°C 48.6°F9.2°C 81% 5.8 mph NW9.3 kmh NW 6.9 mph11.1 kmh 29.41 in995.9 mb - 0.00 in0.0 mm 0.00 in0.0 mm
07:15 AM 54.9°F12.7°C 49.1°F9.5°C 81% 3.5 mph NNE5.6 kmh NNE 10.4 mph16.7 kmh 29.41 in995.9 mb - 0.00 in0.0 mm 0.00 in0.0 mm
07:20 AM 54.7°F12.6°C 47.3°F8.5°C 76% 8.1 mph N13.0 kmh N 12.7 mph20.4 kmh 29.41 in995.9 mb - 0.00 in0.0 mm 0.00 in0.0 mm
07:25 AM 55.0°F12.8°C 48.6°F9.2°C 79% 4.6 mph NW7.4 kmh NW 6.9 mph11.1 kmh 29.41 in995.9 mb - 0.00 in0.0 mm 0.00 in0.0 mm
07:30 AM 56.2°F13.4°C 49.7°F9.8°C 79% 4.6 mph NW7.4 kmh NW 10.4 mph16.7 kmh 29.42 in996.3 mb - 0.00 in0.0 mm 0.00 in0.0 mm
07:35 AM 56.5°F13.6°C 49.0°F9.4°C 76% 4.6 mph NW7.4 kmh NW 6.9 mph11.1 kmh 29.42 in996.3 mb - 0.00 in0.0 mm 0.00 in0.0 mm
07:40 AM 56.7°F13.7°C 48.5°F9.2°C 74% 5.8 mph NNW9.3 kmh NNW 5.8 mph9.3 kmh 29.42 in996.3 mb - 0.00 in0.0 mm 0.00 in0.0 mm
07:45 AM 56.7°F13.7°C 49.2°F9.6°C 76% 5.8 mph NNW9.3 kmh NNW 8.1 mph13.0 kmh 29.41 in995.9 mb - 0.00 in0.0 mm 0.00 in0.0 mm
07:50 AM 56.8°F13.8°C 49.0°F9.4°C 75% 4.6 mph NW7.4 kmh NW 4.6 mph7.4 kmh 29.41 in995.9 mb - 0.00 in0.0 mm 0.00 in0.0 mm
07:55 AM 56.8°F13.8°C 49.0°F9.4°C 75% 4.6 mph NW7.4 kmh NW 4.6 mph7.4 kmh 29.41 in995.9 mb - 0.00 in0.0 mm 0.00 in0.0 mm
08:00 AM 57.5°F14.2°C 48.9°F9.4°C 73% 5.8 mph NW9.3 kmh NW 5.8 mph9.3 kmh 29.42 in996.3 mb - 0.00 in0.0 mm 0.00 in0.0 mm
08:10 AM 57.0°F13.9°C 47.7°F8.7°C 71% 8.1 mph NNW13.0 kmh NNW 12.7 mph20.4 kmh 29.42 in996.3 mb - 0.00 in0.0 mm 0.00 in0.0 mm
08:15 AM 57.2°F14.0°C 47.1°F8.4°C 69% 9.2 mph NNW14.8 kmh NNW 11.5 mph18.5 kmh 29.43 in996.6 mb - 0.00 in0.0 mm 0.00 in0.0 mm
08:20 AM 57.7°F14.3°C 47.6°F8.7°C 69% 8.1 mph N13.0 kmh N 13.8 mph22.2 kmh 29.43 in996.6 mb - 0.00 in0.0 mm 0.00 in0.0 mm
08:25 AM 58.1°F14.5°C 47.6°F8.7°C 68% 11.5 mph N18.5 kmh N 15.0 mph24.1 kmh 29.43 in996.6 mb - 0.00 in0.0 mm 0.00 in0.0 mm
08:30 AM 58.6°F14.8°C 48.4°F9.1°C 69% 5.8 mph NNW9.3 kmh NNW 5.8 mph9.3 kmh 29.43 in996.6 mb - 0.00 in0.0 mm 0.00 in0.0 mm
08:35 AM 58.6°F14.8°C 48.1°F8.9°C 68% 6.9 mph NNW11.1 kmh NNW 9.2 mph14.8 kmh 29.43 in996.6 mb - 0.00 in0.0 mm 0.00 in0.0 mm
08:40 AM 58.1°F14.5°C 47.6°F8.7°C 68% 5.8 mph N9.3 kmh N 6.9 mph11.1 kmh 29.43 in996.6 mb - 0.00 in0.0 mm 0.00 in0.0 mm
08:45 AM 58.1°F14.5°C 47.6°F8.7°C 68% 5.8 mph NNW9.3 kmh NNW 5.8 mph9.3 kmh 29.43 in996.6 mb - 0.00 in0.0 mm 0.00 in0.0 mm
08:50 AM 57.9°F14.4°C 47.0°F8.3°C 67% 6.9 mph NW11.1 kmh NW 10.4 mph16.7 kmh 29.43 in996.6 mb - 0.00 in0.0 mm 0.00 in0.0 mm
08:55 AM 58.3°F14.6°C 47.8°F8.8°C 68% 4.6 mph N7.4 kmh N 8.1 mph13.0 kmh 29.43 in996.6 mb - 0.00 in0.0 mm 0.00 in0.0 mm
09:00 AM 58.9°F14.9°C 47.6°F8.7°C 66% 5.8 mph N9.3 kmh N 8.1 mph13.0 kmh 29.44 in997.0 mb - 0.00 in0.0 mm 0.00 in0.0 mm
09:10 AM 59.2°F15.1°C 47.8°F8.8°C 66% 8.1 mph NW13.0 kmh NW 8.1 mph13.0 kmh 29.44 in997.0 mb - 0.00 in0.0 mm 0.00 in0.0 mm
09:15 AM 58.6°F14.8°C 46.9°F8.3°C 65% 5.8 mph N9.3 kmh N 8.1 mph13.0 kmh 29.44 in997.0 mb - 0.00 in0.0 mm 0.00 in0.0 mm
09:20 AM 58.3°F14.6°C 45.7°F7.6°C 63% 8.1 mph NNW13.0 kmh NNW 9.2 mph14.8 kmh 29.44 in997.0 mb - 0.00 in0.0 mm 0.00 in0.0 mm
09:25 AM 58.2°F14.6°C 46.0°F7.8°C 64% 6.9 mph NNW11.1 kmh NNW 11.5 mph18.5 kmh 29.44 in997.0 mb - 0.00 in0.0 mm 0.00 in0.0 mm
09:30 AM 57.4°F14.1°C 47.3°F8.5°C 69% 6.9 mph NNW11.1 kmh NNW 8.1 mph13.0 kmh 29.44 in997.0 mb - 0.00 in0.0 mm 0.00 in0.0 mm
09:35 AM 57.4°F14.1°C 47.3°F8.5°C 69% 5.8 mph NNE9.3 kmh NNE 6.9 mph11.1 kmh 29.44 in997.0 mb - 0.00 in0.0 mm 0.00 in0.0 mm
09:40 AM 57.4°F14.1°C 47.3°F8.5°C 69% 4.6 mph NNW7.4 kmh NNW 5.8 mph9.3 kmh 29.44 in997.0 mb - 0.00 in0.0 mm 0.00 in0.0 mm
09:45 AM 58.1°F14.5°C 46.4°F8.0°C 65% 5.8 mph NW9.3 kmh NW 5.8 mph9.3 kmh 29.45 in997.3 mb - 0.00 in0.0 mm 0.00 in0.0 mm
09:50 AM 58.6°F14.8°C 46.9°F8.3°C 65% 6.9 mph NNW11.1 kmh NNW 9.2 mph14.8 kmh 29.45 in997.3 mb - 0.00 in0.0 mm 0.00 in0.0 mm
09:55 AM 59.0°F15.0°C 46.8°F8.2°C 64% 8.1 mph NW13.0 kmh NW 11.5 mph18.5 kmh 29.45 in997.3 mb - 0.00 in0.0 mm 0.00 in0.0 mm
10:00 AM 59.2°F15.1°C 46.2°F7.9°C 62% 10.4 mph NW16.7 kmh NW 9.2 mph14.8 kmh 29.45 in997.3 mb - 0.00 in0.0 mm 0.00 in0.0 mm
10:10 AM 60.1°F15.6°C 47.4°F8.6°C 63% 6.9 mph WNW11.1 kmh WNW 8.1 mph13.0 kmh 29.45 in997.3 mb - 0.00 in0.0 mm 0.00 in0.0 mm
10:15 AM 60.8°F16.0°C 47.7°F8.7°C 62% 9.2 mph NNE14.8 kmh NNE 10.4 mph16.7 kmh 29.46 in997.6 mb - 0.00 in0.0 mm 0.00 in0.0 mm
10:20 AM 60.4°F15.8°C 46.9°F8.3°C 61% 5.8 mph W9.3 kmh W 5.8 mph9.3 kmh 29.46 in997.6 mb - 0.00 in0.0 mm 0.00 in0.0 mm
10:25 AM 61.6°F16.4°C 48.5°F9.2°C 62% 6.9 mph NW11.1 kmh NW 8.1 mph13.0 kmh 29.46 in997.6 mb - 0.00 in0.0 mm 0.00 in0.0 mm
10:30 AM 62.1°F16.7°C 48.5°F9.2°C 61% 3.5 mph NNW5.6 kmh NNW 6.9 mph11.1 kmh 29.45 in997.3 mb - 0.00 in0.0 mm 0.00 in0.0 mm
10:35 AM 62.4°F16.9°C 47.9°F8.8°C 59% 6.9 mph N11.1 kmh N 9.2 mph14.8 kmh 29.45 in997.3 mb - 0.00 in0.0 mm 0.00 in0.0 mm
10:40 AM 61.5°F16.4°C 47.1°F8.4°C 59% 4.6 mph ENE7.4 kmh ENE 8.1 mph13.0 kmh 29.45 in997.3 mb - 0.00 in0.0 mm 0.00 in0.0 mm
10:45 AM 61.9°F16.6°C 47.4°F8.6°C 59% 6.9 mph N11.1 kmh N 10.4 mph16.7 kmh 29.46 in997.6 mb - 0.00 in0.0 mm 0.00 in0.0 mm
10:50 AM 61.9°F16.6°C 47.8°F8.8°C 60% 5.8 mph NNE9.3 kmh NNE 6.9 mph11.1 kmh 29.46 in997.6 mb - 0.00 in0.0 mm 0.00 in0.0 mm
10:55 AM 61.0°F16.1°C 47.0°F8.3°C 60% 4.6 mph WNW7.4 kmh WNW 4.6 mph7.4 kmh 29.46 in997.6 mb - 0.00 in0.0 mm 0.00 in0.0 mm
11:00 AM 61.1°F16.2°C 48.0°F8.9°C 62% 8.1 mph NNE13.0 kmh NNE 9.2 mph14.8 kmh 29.46 in997.6 mb - 0.00 in0.0 mm 0.00 in0.0 mm
11:10 AM 62.1°F16.7°C 48.9°F9.4°C 62% 5.8 mph W9.3 kmh W 8.1 mph13.0 kmh 29.46 in997.6 mb - 0.00 in0.0 mm 0.00 in0.0 mm
11:15 AM 62.2°F16.8°C 48.6°F9.2°C 61% 5.8 mph NW9.3 kmh NW 5.8 mph9.3 kmh 29.46 in997.6 mb - 0.00 in0.0 mm 0.00 in0.0 mm
11:20 AM 63.0°F17.2°C 48.4°F9.1°C 59% 10.4 mph WSW16.7 kmh WSW 12.7 mph20.4 kmh 29.46 in997.6 mb - 0.00 in0.0 mm 0.00 in0.0 mm
11:25 AM 63.3°F17.4°C 48.3°F9.1°C 58% 4.6 mph NW7.4 kmh NW 6.9 mph11.1 kmh 29.46 in997.6 mb - 0.00 in0.0 mm 0.00 in0.0 mm
11:30 AM 64.4°F18.0°C 48.9°F9.4°C 57% 5.8 mph NW9.3 kmh NW 11.5 mph18.5 kmh 29.45 in997.3 mb - 0.00 in0.0 mm 0.00 in0.0 mm
11:35 AM 64.2°F17.9°C 46.7°F8.2°C 53% 8.1 mph NNW13.0 kmh NNW 10.4 mph16.7 kmh 29.45 in997.3 mb - 0.00 in0.0 mm 0.00 in0.0 mm
11:40 AM 63.9°F17.7°C 46.4°F8.0°C 53% 6.9 mph WNW11.1 kmh WNW 10.4 mph16.7 kmh 29.45 in997.3 mb - 0.00 in0.0 mm 0.00 in0.0 mm
11:45 AM 63.5°F17.5°C 46.1°F7.8°C 53% 5.8 mph NW9.3 kmh NW 9.2 mph14.8 kmh 29.46 in997.6 mb - 0.00 in0.0 mm 0.00 in0.0 mm
11:50 AM 63.2°F17.3°C 45.2°F7.3°C 52% 5.8 mph ENE9.3 kmh ENE 4.6 mph7.4 kmh 29.46 in997.6 mb - 0.00 in0.0 mm 0.00 in0.0 mm
11:55 AM 63.2°F17.3°C 44.8°F7.1°C 51% 9.2 mph NW14.8 kmh NW 10.4 mph16.7 kmh 29.46 in997.6 mb - 0.00 in0.0 mm 0.00 in0.0 mm
12:00 PM 63.1°F17.3°C 44.1°F6.7°C 50% 5.8 mph NNW9.3 kmh NNW 9.2 mph14.8 kmh 29.46 in997.6 mb - 0.00 in0.0 mm 0.00 in0.0 mm
12:10 PM 63.5°F17.5°C 43.4°F6.3°C 48% 5.8 mph NNW9.3 kmh NNW 6.9 mph11.1 kmh 29.46 in997.6 mb - 0.00 in0.0 mm 0.00 in0.0 mm
12:15 PM 64.2°F17.9°C 43.0°F6.1°C 46% 4.6 mph NW7.4 kmh NW 5.8 mph9.3 kmh 29.46 in997.6 mb - 0.00 in0.0 mm 0.00 in0.0 mm
12:20 PM 64.0°F17.8°C 43.9°F6.6°C 48% 8.1 mph N13.0 kmh N 8.1 mph13.0 kmh 29.46 in997.6 mb - 0.00 in0.0 mm 0.00 in0.0 mm
12:25 PM 64.6°F18.1°C 46.1°F7.8°C 51% 3.5 mph N5.6 kmh N 3.5 mph5.6 kmh 29.46 in997.6 mb - 0.00 in0.0 mm 0.00 in0.0 mm
12:30 PM 64.9°F18.3°C 45.3°F7.4°C 49% 6.9 mph NNE11.1 kmh NNE 10.4 mph16.7 kmh 29.47 in998.0 mb - 0.00 in0.0 mm 0.00 in0.0 mm
12:35 PM 64.8°F18.2°C 44.6°F7.0°C 48% 6.9 mph 11.1 kmh 10.4 mph16.7 kmh 29.47 in998.0 mb - 0.00 in0.0 mm 0.00 in0.0 mm
12:40 PM 64.8°F18.2°C 43.5°F6.4°C 46% 6.9 mph N11.1 kmh N 8.1 mph13.0 kmh 29.47 in998.0 mb - 0.00 in0.0 mm 0.00 in0.0 mm
12:45 PM 65.1°F18.4°C 44.9°F7.2°C 48% 4.6 mph NNW7.4 kmh NNW 4.6 mph7.4 kmh 29.47 in998.0 mb - 0.00 in0.0 mm 0.00 in0.0 mm
12:50 PM 66.1°F18.9°C 45.8°F7.7°C 48% 4.6 mph WNW7.4 kmh WNW 8.1 mph13.0 kmh 29.47 in998.0 mb - 0.00 in0.0 mm 0.00 in0.0 mm
12:55 PM 66.2°F19.0°C 45.9°F7.7°C 48% 9.2 mph NNW14.8 kmh NNW 12.7 mph20.4 kmh 29.47 in998.0 mb - 0.00 in0.0 mm 0.00 in0.0 mm
01:00 PM 66.2°F19.0°C 43.0°F6.1°C 43% 6.9 mph NW11.1 kmh NW 9.2 mph14.8 kmh 29.46 in997.6 mb - 0.00 in0.0 mm 0.00 in0.0 mm
01:10 PM 66.6°F19.2°C 42.7°F5.9°C 42% 5.8 mph WSW9.3 kmh WSW 8.1 mph13.0 kmh 29.46 in997.6 mb - 0.00 in0.0 mm 0.00 in0.0 mm
01:15 PM 66.4°F19.1°C 40.7°F4.8°C 39% 3.5 mph NE5.6 kmh NE 4.6 mph7.4 kmh 29.46 in997.6 mb - 0.00 in0.0 mm 0.00 in0.0 mm
01:20 PM 67.1°F19.5°C 43.8°F6.6°C 43% 3.5 mph WNW5.6 kmh WNW 5.8 mph9.3 kmh 29.46 in997.6 mb - 0.00 in0.0 mm 0.00 in0.0 mm
01:25 PM 68.2°F20.1°C 45.4°F7.4°C 44% 3.5 mph W5.6 kmh W 4.6 mph7.4 kmh 29.46 in997.6 mb - 0.00 in0.0 mm 0.00 in0.0 mm
01:30 PM 67.5°F19.7°C 44.2°F6.8°C 43% 4.6 mph WSW7.4 kmh WSW 6.9 mph11.1 kmh 29.46 in997.6 mb - 0.00 in0.0 mm 0.00 in0.0 mm
01:35 PM 67.8°F19.9°C 43.9°F6.6°C 42% 5.8 mph WNW9.3 kmh WNW 8.1 mph13.0 kmh 29.46 in997.6 mb - 0.00 in0.0 mm 0.00 in0.0 mm
01:40 PM 66.6°F19.2°C 41.5°F5.3°C 40% 3.5 mph NNW5.6 kmh NNW 6.9 mph11.1 kmh 29.46 in997.6 mb - 0.00 in0.0 mm 0.00 in0.0 mm
01:45 PM 66.2°F19.0°C 43.6°F6.4°C 44% 4.6 mph SW7.4 kmh SW 5.8 mph9.3 kmh 29.46 in997.6 mb - 0.00 in0.0 mm 0.00 in0.0 mm
01:50 PM 65.0°F18.3°C 40.1°F4.5°C 40% 8.1 mph WNW13.0 kmh WNW 11.5 mph18.5 kmh 29.46 in997.6 mb - 0.00 in0.0 mm 0.00 in0.0 mm
01:55 PM 64.5°F18.1°C 39.6°F4.2°C 40% 4.6 mph WNW7.4 kmh WNW 8.1 mph13.0 kmh 29.46 in997.6 mb - 0.00 in0.0 mm 0.00 in0.0 mm
02:00 PM 64.1°F17.8°C 40.5°F4.7°C 42% 5.8 mph NW9.3 kmh NW 6.9 mph11.1 kmh 29.46 in997.6 mb - 0.00 in0.0 mm 0.00 in0.0 mm
02:10 PM 64.0°F17.8°C 41.1°F5.1°C 43% 3.5 mph NNW5.6 kmh NNW 5.8 mph9.3 kmh 29.46 in997.6 mb - 0.00 in0.0 mm 0.00 in0.0 mm
02:15 PM 64.2°F17.9°C 41.2°F5.1°C 43% 3.5 mph WNW5.6 kmh WNW 4.6 mph7.4 kmh 29.46 in997.6 mb - 0.00 in0.0 mm 0.00 in0.0 mm
02:20 PM 64.6°F18.1°C 42.2°F5.7°C 44% 6.9 mph WNW11.1 kmh WNW 8.1 mph13.0 kmh 29.46 in997.6 mb - 0.00 in0.0 mm 0.00 in0.0 mm
02:25 PM 64.6°F18.1°C 41.6°F5.3°C 43% 3.5 mph SW5.6 kmh SW 3.5 mph5.6 kmh 29.46 in997.6 mb - 0.00 in0.0 mm 0.00 in0.0 mm
02:30 PM 64.9°F18.3°C 41.9°F5.5°C 43% 3.5 mph WNW5.6 kmh WNW 3.5 mph5.6 kmh 29.45 in997.3 mb - 0.00 in0.0 mm 0.00 in0.0 mm
02:35 PM 65.1°F18.4°C 43.2°F6.2°C 45% 3.5 mph NNW5.6 kmh NNW 2.3 mph3.7 kmh 29.45 in997.3 mb - 0.00 in0.0 mm 0.00 in0.0 mm
02:40 PM 64.9°F18.3°C 43.1°F6.2°C 45% 3.5 mph NW5.6 kmh NW 2.3 mph3.7 kmh 29.45 in997.3 mb - 0.00 in0.0 mm 0.00 in0.0 mm
02:45 PM 64.8°F18.2°C 42.9°F6.1°C 45% 4.6 mph NW7.4 kmh NW 5.8 mph9.3 kmh 29.43 in996.6 mb - 0.00 in0.0 mm 0.00 in0.0 mm
02:50 PM 64.6°F18.1°C 42.2°F5.7°C 44% 5.8 mph W9.3 kmh W 5.8 mph9.3 kmh 29.43 in996.6 mb - 0.00 in0.0 mm 0.00 in0.0 mm
02:55 PM 64.7°F18.2°C 42.8°F6.0°C 45% 3.5 mph W5.6 kmh W 3.5 mph5.6 kmh 29.43 in996.6 mb - 0.00 in0.0 mm 0.00 in0.0 mm
03:00 PM 64.9°F18.3°C 44.2°F6.8°C 47% 2.3 mph WNW3.7 kmh WNW 2.3 mph3.7 kmh 29.44 in997.0 mb - 0.00 in0.0 mm 0.00 in0.0 mm
03:10 PM 64.8°F18.2°C 43.5°F6.4°C 46% 2.3 mph NW3.7 kmh NW 3.5 mph5.6 kmh 29.44 in997.0 mb - 0.00 in0.0 mm 0.00 in0.0 mm
03:15 PM 64.8°F18.2°C 42.9°F6.1°C 45% 5.8 mph NW9.3 kmh NW 4.6 mph7.4 kmh 29.44 in997.0 mb - 0.00 in0.0 mm 0.00 in0.0 mm
03:20 PM 65.2°F18.4°C 42.1°F5.6°C 43% 4.6 mph NNW7.4 kmh NNW 8.1 mph13.0 kmh 29.44 in997.0 mb - 0.00 in0.0 mm 0.00 in0.0 mm
03:25 PM 65.9°F18.8°C 39.5°F4.2°C 38% 11.5 mph NW18.5 kmh NW 12.7 mph20.4 kmh 29.44 in997.0 mb - 0.00 in0.0 mm 0.00 in0.0 mm
03:30 PM 65.1°F18.4°C 37.5°F3.1°C 36% 6.9 mph N11.1 kmh N 11.5 mph18.5 kmh 29.43 in996.6 mb - 0.00 in0.0 mm 0.00 in0.0 mm
03:35 PM 65.5°F18.6°C 37.1°F2.8°C 35% 5.8 mph NW9.3 kmh NW 5.8 mph9.3 kmh 29.43 in996.6 mb - 0.00 in0.0 mm 0.00 in0.0 mm
03:40 PM 65.5°F18.6°C 38.5°F3.6°C 37% 6.9 mph NW11.1 kmh NW 8.1 mph13.0 kmh 29.43 in996.6 mb - 0.00 in0.0 mm 0.00 in0.0 mm
03:45 PM 66.4°F19.1°C 39.3°F4.1°C 37% 6.9 mph WNW11.1 kmh WNW 8.1 mph13.0 kmh 29.44 in997.0 mb - 0.00 in0.0 mm 0.00 in0.0 mm
03:50 PM 66.4°F19.1°C 38.6°F3.7°C 36% 5.8 mph NW9.3 kmh NW 8.1 mph13.0 kmh 29.44 in997.0 mb - 0.00 in0.0 mm 0.00 in0.0 mm
03:55 PM 66.7°F19.3°C 38.2°F3.4°C 35% 6.9 mph WNW11.1 kmh WNW 6.9 mph11.1 kmh 29.44 in997.0 mb - 0.00 in0.0 mm 0.00 in0.0 mm
04:00 PM 67.8°F19.9°C 39.1°F3.9°C 35% 12.7 mph WNW20.4 kmh WNW 15.0 mph24.1 kmh 29.44 in997.0 mb - 0.00 in0.0 mm 0.00 in0.0 mm
04:10 PM 67.6°F19.8°C 38.3°F3.5°C 34% 8.1 mph NW13.0 kmh NW 9.2 mph14.8 kmh 29.44 in997.0 mb - 0.00 in0.0 mm 0.00 in0.0 mm
04:15 PM 67.3°F19.6°C 35.6°F2.0°C 31% 8.1 mph NW13.0 kmh NW 9.2 mph14.8 kmh 29.44 in997.0 mb - 0.00 in0.0 mm 0.00 in0.0 mm
04:20 PM 67.4°F19.7°C 36.5°F2.5°C 32% 5.8 mph WNW9.3 kmh WNW 8.1 mph13.0 kmh 29.44 in997.0 mb - 0.00 in0.0 mm 0.00 in0.0 mm
04:25 PM 67.6°F19.8°C 37.4°F3.0°C 33% 6.9 mph NE11.1 kmh NE 8.1 mph13.0 kmh 29.44 in997.0 mb - 0.00 in0.0 mm 0.00 in0.0 mm
04:30 PM 67.3°F19.6°C 37.2°F2.9°C 33% 6.9 mph W11.1 kmh W 8.1 mph13.0 kmh 29.44 in997.0 mb - 0.00 in0.0 mm 0.00 in0.0 mm
04:35 PM 67.3°F19.6°C 37.2°F2.9°C 33% 9.2 mph NW14.8 kmh NW 9.2 mph14.8 kmh 29.44 in997.0 mb - 0.00 in0.0 mm 0.00 in0.0 mm
04:40 PM 66.7°F19.3°C 35.9°F2.2°C 32% 8.1 mph NNW13.0 kmh NNW 3.5 mph5.6 kmh 29.44 in997.0 mb - 0.00 in0.0 mm 0.00 in0.0 mm
04:45 PM 66.6°F19.2°C 35.8°F2.1°C 32% 6.9 mph NW11.1 kmh NW 8.1 mph13.0 kmh 29.44 in997.0 mb - 0.00 in0.0 mm 0.00 in0.0 mm
04:50 PM 66.5°F19.2°C 34.9°F1.6°C 31% 8.1 mph N13.0 kmh N 12.7 mph20.4 kmh 29.44 in997.0 mb - 0.00 in0.0 mm 0.00 in0.0 mm
04:55 PM 66.2°F19.0°C 34.7°F1.5°C 31% 6.9 mph W11.1 kmh W 10.4 mph16.7 kmh 29.44 in997.0 mb - 0.00 in0.0 mm 0.00 in0.0 mm
05:00 PM 66.2°F19.0°C 34.7°F1.5°C 31% 4.6 mph WNW7.4 kmh WNW 11.5 mph18.5 kmh 29.44 in997.0 mb - 0.00 in0.0 mm 0.00 in0.0 mm
05:10 PM 65.8°F18.8°C 34.3°F1.3°C 31% 5.8 mph WNW9.3 kmh WNW 8.1 mph13.0 kmh 29.44 in997.0 mb - 0.00 in0.0 mm 0.00 in0.0 mm
05:15 PM 65.8°F18.8°C 34.3°F1.3°C 31% 8.1 mph NW13.0 kmh NW 11.5 mph18.5 kmh 29.45 in997.3 mb - 0.00 in0.0 mm 0.00 in0.0 mm
05:20 PM 65.5°F18.6°C 34.8°F1.6°C 32% 6.9 mph W11.1 kmh W 8.1 mph13.0 kmh 29.45 in997.3 mb - 0.00 in0.0 mm 0.00 in0.0 mm
05:25 PM 65.1°F18.4°C 33.7°F0.9°C 31% 5.8 mph W9.3 kmh W 6.9 mph11.1 kmh 29.45 in997.3 mb - 0.00 in0.0 mm 0.00 in0.0 mm
05:30 PM 64.8°F18.2°C 34.2°F1.2°C 32% 4.6 mph WNW7.4 kmh WNW 6.9 mph11.1 kmh 29.45 in997.3 mb - 0.00 in0.0 mm 0.00 in0.0 mm
05:35 PM 64.6°F18.1°C 33.2°F0.7°C 31% 9.2 mph NW14.8 kmh NW 9.2 mph14.8 kmh 29.45 in997.3 mb - 0.00 in0.0 mm 0.00 in0.0 mm
05:40 PM 64.2°F17.9°C 34.5°F1.4°C 33% 3.5 mph NW5.6 kmh NW 5.8 mph9.3 kmh 29.45 in997.3 mb - 0.00 in0.0 mm 0.00 in0.0 mm
05:45 PM 63.9°F17.7°C 34.2°F1.2°C 33% 4.6 mph WNW7.4 kmh WNW 6.9 mph11.1 kmh 29.45 in997.3 mb - 0.00 in0.0 mm 0.00 in0.0 mm
05:50 PM 63.7°F17.6°C 33.2°F0.7°C 32% 5.8 mph NW9.3 kmh NW 8.1 mph13.0 kmh 29.45 in997.3 mb - 0.00 in0.0 mm 0.00 in0.0 mm
05:55 PM 63.5°F17.5°C 33.8°F1.0°C 33% 4.6 mph WNW7.4 kmh WNW 6.9 mph11.1 kmh 29.45 in997.3 mb - 0.00 in0.0 mm 0.00 in0.0 mm
06:00 PM 63.1°F17.3°C 33.5°F0.8°C 33% 5.8 mph NW9.3 kmh NW 5.8 mph9.3 kmh 29.45 in997.3 mb - 0.00 in0.0 mm 0.00 in0.0 mm
06:10 PM 62.4°F16.9°C 34.4°F1.3°C 35% 3.5 mph WNW5.6 kmh WNW 3.5 mph5.6 kmh 29.45 in997.3 mb - 0.00 in0.0 mm 0.00 in0.0 mm
06:15 PM 62.1°F16.7°C 34.1°F1.2°C 35% 3.5 mph WNW5.6 kmh WNW 4.6 mph7.4 kmh 29.45 in997.3 mb - 0.00 in0.0 mm 0.00 in0.0 mm
06:20 PM 61.8°F16.6°C 33.8°F1.0°C 35% 4.6 mph WSW7.4 kmh WSW 5.8 mph9.3 kmh 29.45 in997.3 mb - 0.00 in0.0 mm 0.00 in0.0 mm
06:25 PM 61.3°F16.3°C 34.1°F1.2°C 36% 3.5 mph WNW5.6 kmh WNW 5.8 mph9.3 kmh 29.45 in997.3 mb - 0.00 in0.0 mm 0.00 in0.0 mm
06:30 PM 61.2°F16.2°C 34.7°F1.5°C 37% 2.3 mph NW3.7 kmh NW 3.5 mph5.6 kmh 29.45 in997.3 mb - 0.00 in0.0 mm 0.00 in0.0 mm
06:35 PM 60.6°F15.9°C 34.2°F1.2°C 37% 3.5 mph WNW5.6 kmh WNW 3.5 mph5.6 kmh 29.45 in997.3 mb - 0.00 in0.0 mm 0.00 in0.0 mm
06:40 PM 60.1°F15.6°C 34.4°F1.3°C 38% 3.5 mph NW5.6 kmh NW 4.6 mph7.4 kmh 29.45 in997.3 mb - 0.00 in0.0 mm 0.00 in0.0 mm
06:45 PM 59.8°F15.4°C 34.7°F1.5°C 39% 3.5 mph WNW5.6 kmh WNW 3.5 mph5.6 kmh 29.46 in997.6 mb - 0.00 in0.0 mm 0.00 in0.0 mm
06:50 PM 59.4°F15.2°C 34.4°F1.3°C 39% 3.5 mph NW5.6 kmh NW 3.5 mph5.6 kmh 29.46 in997.6 mb - 0.00 in0.0 mm 0.00 in0.0 mm
06:55 PM 59.0°F15.0°C 34.7°F1.5°C 40% 3.5 mph WNW5.6 kmh WNW 4.6 mph7.4 kmh 29.46 in997.6 mb - 0.00 in0.0 mm 0.00 in0.0 mm
07:00 PM 58.6°F14.8°C 35.0°F1.7°C 41% 2.3 mph NNW3.7 kmh NNW 3.5 mph5.6 kmh 29.45 in997.3 mb - 0.00 in0.0 mm 0.00 in0.0 mm
07:10 PM 57.7°F14.3°C 34.8°F1.6°C 42% 3.5 mph WNW5.6 kmh WNW 3.5 mph5.6 kmh 29.45 in997.3 mb - 0.00 in0.0 mm 0.00 in0.0 mm
07:15 PM 57.4°F14.1°C 34.5°F1.4°C 42% 3.5 mph W5.6 kmh W 4.6 mph7.4 kmh 29.46 in997.6 mb - 0.00 in0.0 mm 0.00 in0.0 mm
07:20 PM 57.1°F13.9°C 34.2°F1.2°C 42% 3.5 mph W5.6 kmh W 3.5 mph5.6 kmh 29.46 in997.6 mb - 0.00 in0.0 mm 0.00 in0.0 mm
07:25 PM 56.8°F13.8°C 34.5°F1.4°C 43% 2.3 mph WNW3.7 kmh WNW 3.5 mph5.6 kmh 29.46 in997.6 mb - 0.00 in0.0 mm 0.00 in0.0 mm
07:30 PM 56.3°F13.5°C 34.1°F1.2°C 43% 1.2 mph WNW1.9 kmh WNW 1.2 mph1.9 kmh 29.46 in997.6 mb - 0.00 in0.0 mm 0.00 in0.0 mm
07:35 PM 55.9°F13.3°C 34.3°F1.3°C 44% 2.3 mph WNW3.7 kmh WNW 3.5 mph5.6 kmh 29.46 in997.6 mb - 0.00 in0.0 mm 0.00 in0.0 mm
07:40 PM 55.6°F13.1°C 34.6°F1.4°C 45% 2.3 mph WNW3.7 kmh WNW 2.3 mph3.7 kmh 29.46 in997.6 mb - 0.00 in0.0 mm 0.00 in0.0 mm
07:45 PM 55.3°F12.9°C 34.8°F1.6°C 46% 2.3 mph W3.7 kmh W 2.3 mph3.7 kmh 29.47 in998.0 mb - 0.00 in0.0 mm 0.00 in0.0 mm
07:50 PM 54.9°F12.7°C 35.0°F1.7°C 47% 1.2 mph W1.9 kmh W 1.2 mph1.9 kmh 29.47 in998.0 mb - 0.00 in0.0 mm 0.00 in0.0 mm
07:55 PM 54.5°F12.5°C 34.7°F1.5°C 47% 1.2 mph WNW1.9 kmh WNW 1.2 mph1.9 kmh 29.47 in998.0 mb - 0.00 in0.0 mm 0.00 in0.0 mm
08:00 PM 54.1°F12.3°C 34.9°F1.6°C 48% 2.3 mph WNW3.7 kmh WNW 3.5 mph5.6 kmh 29.47 in998.0 mb - 0.00 in0.0 mm 0.00 in0.0 mm
08:10 PM 53.4°F11.9°C 35.7°F2.1°C 51% 2.3 mph WNW3.7 kmh WNW 3.5 mph5.6 kmh 29.47 in998.0 mb - 0.00 in0.0 mm 0.00 in0.0 mm
08:15 PM 53.2°F11.8°C 36.1°F2.3°C 52% 2.3 mph WNW3.7 kmh WNW 2.3 mph3.7 kmh 29.48 in998.3 mb - 0.00 in0.0 mm 0.00 in0.0 mm
08:20 PM 53.2°F11.8°C 36.1°F2.3°C 52% 2.3 mph WNW3.7 kmh WNW 3.5 mph5.6 kmh 29.48 in998.3 mb - 0.00 in0.0 mm 0.00 in0.0 mm
08:25 PM 53.1°F11.7°C 35.9°F2.2°C 52% 2.3 mph WNW3.7 kmh WNW 3.5 mph5.6 kmh 29.48 in998.3 mb - 0.00 in0.0 mm 0.00 in0.0 mm
08:30 PM 52.9°F11.6°C 36.2°F2.3°C 53% 2.3 mph WNW3.7 kmh WNW 2.3 mph3.7 kmh 29.48 in998.3 mb - 0.00 in0.0 mm 0.00 in0.0 mm
08:35 PM 52.7°F11.5°C 36.0°F2.2°C 53% 2.3 mph W3.7 kmh W 2.3 mph3.7 kmh 29.48 in998.3 mb - 0.00 in0.0 mm 0.00 in0.0 mm
08:40 PM 52.4°F11.3°C 35.7°F2.1°C 53% 2.3 mph WNW3.7 kmh WNW 3.5 mph5.6 kmh 29.48 in998.3 mb - 0.00 in0.0 mm 0.00 in0.0 mm
08:45 PM 52.3°F11.3°C 36.2°F2.3°C 54% 2.3 mph WNW3.7 kmh WNW 2.3 mph3.7 kmh 29.48 in998.3 mb - 0.00 in0.0 mm 0.00 in0.0 mm
08:50 PM 51.9°F11.1°C 35.8°F2.1°C 54% 1.2 mph WNW1.9 kmh WNW 2.3 mph3.7 kmh 29.48 in998.3 mb - 0.00 in0.0 mm 0.00 in0.0 mm
08:55 PM 51.8°F11.0°C 35.7°F2.1°C 54% 2.3 mph WNW3.7 kmh WNW 2.3 mph3.7 kmh 29.48 in998.3 mb - 0.00 in0.0 mm 0.00 in0.0 mm
09:00 PM 51.6°F10.9°C 35.5°F1.9°C 54% 1.2 mph WNW1.9 kmh WNW 1.2 mph1.9 kmh 29.48 in998.3 mb - 0.00 in0.0 mm 0.00 in0.0 mm
09:10 PM 51.3°F10.7°C 35.6°F2.0°C 55% 2.3 mph WNW3.7 kmh WNW 2.3 mph3.7 kmh 29.48 in998.3 mb - 0.00 in0.0 mm 0.00 in0.0 mm
09:15 PM 51.0°F10.6°C 35.4°F1.9°C 55% 3.5 mph W5.6 kmh W 3.5 mph5.6 kmh 29.48 in998.3 mb - 0.00 in0.0 mm 0.00 in0.0 mm
09:20 PM 50.9°F10.5°C 35.3°F1.8°C 55% 2.3 mph WNW3.7 kmh WNW 3.5 mph5.6 kmh 29.48 in998.3 mb - 0.00 in0.0 mm 0.00 in0.0 mm
09:25 PM 50.7°F10.4°C 35.1°F1.7°C 55% 3.5 mph WNW5.6 kmh WNW 3.5 mph5.6 kmh 29.48 in998.3 mb - 0.00 in0.0 mm 0.00 in0.0 mm
09:30 PM 50.7°F10.4°C 35.6°F2.0°C 56% 3.5 mph W5.6 kmh W 3.5 mph5.6 kmh 29.48 in998.3 mb - 0.00 in0.0 mm 0.00 in0.0 mm
09:35 PM 50.7°F10.4°C 35.1°F1.7°C 55% 3.5 mph WNW5.6 kmh WNW 5.8 mph9.3 kmh 29.48 in998.3 mb - 0.00 in0.0 mm 0.00 in0.0 mm
09:40 PM 51.1°F10.6°C 35.9°F2.2°C 56% 4.6 mph SW7.4 kmh SW 4.6 mph7.4 kmh 29.48 in998.3 mb - 0.00 in0.0 mm 0.00 in0.0 mm
09:45 PM 51.1°F10.6°C 35.5°F1.9°C 55% 3.5 mph NW5.6 kmh NW 3.5 mph5.6 kmh 29.48 in998.3 mb - 0.00 in0.0 mm 0.00 in0.0 mm
09:50 PM 51.3°F10.7°C 36.1°F2.3°C 56% 3.5 mph WNW5.6 kmh WNW 3.5 mph5.6 kmh 29.48 in998.3 mb - 0.00 in0.0 mm 0.00 in0.0 mm
09:55 PM 51.3°F10.7°C 35.6°F2.0°C 55% 3.5 mph NW5.6 kmh NW 3.5 mph5.6 kmh 29.48 in998.3 mb - 0.00 in0.0 mm 0.00 in0.0 mm
10:00 PM 51.3°F10.7°C 35.6°F2.0°C 55% 4.6 mph WNW7.4 kmh WNW 5.8 mph9.3 kmh 29.49 in998.6 mb - 0.00 in0.0 mm 0.00 in0.0 mm
10:10 PM 51.3°F10.7°C 35.6°F2.0°C 55% 3.5 mph WNW5.6 kmh WNW 4.6 mph7.4 kmh 29.49 in998.6 mb - 0.00 in0.0 mm 0.00 in0.0 mm
10:15 PM 51.2°F10.7°C 35.5°F1.9°C 55% 3.5 mph WNW5.6 kmh WNW 3.5 mph5.6 kmh 29.49 in998.6 mb - 0.00 in0.0 mm 0.00 in0.0 mm
10:20 PM 51.3°F10.7°C 35.6°F2.0°C 55% 2.3 mph WNW3.7 kmh WNW 4.6 mph7.4 kmh 29.49 in998.6 mb - 0.00 in0.0 mm 0.00 in0.0 mm
10:25 PM 51.3°F10.7°C 35.6°F2.0°C 55% 3.5 mph W5.6 kmh W 3.5 mph5.6 kmh 29.49 in998.6 mb - 0.00 in0.0 mm 0.00 in0.0 mm
10:30 PM 51.4°F10.8°C 36.3°F2.4°C 56% 3.5 mph WNW5.6 kmh WNW 4.6 mph7.4 kmh 29.49 in998.6 mb - 0.00 in0.0 mm 0.00 in0.0 mm
10:35 PM 51.4°F10.8°C 36.3°F2.4°C 56% 4.6 mph WNW7.4 kmh WNW 4.6 mph7.4 kmh 29.49 in998.6 mb - 0.00 in0.0 mm 0.00 in0.0 mm
10:40 PM 51.4°F10.8°C 36.7°F2.6°C 57% 3.5 mph NW5.6 kmh NW 4.6 mph7.4 kmh 29.49 in998.6 mb - 0.00 in0.0 mm 0.00 in0.0 mm
10:45 PM 51.4°F10.8°C 36.6°F2.6°C 57% 3.5 mph NW5.6 kmh NW 5.8 mph9.3 kmh 29.49 in998.6 mb - 0.00 in0.0 mm 0.00 in0.0 mm
10:50 PM 51.1°F10.6°C 36.4°F2.4°C 57% 3.5 mph N5.6 kmh N 4.6 mph7.4 kmh 29.49 in998.6 mb - 0.00 in0.0 mm 0.00 in0.0 mm
10:55 PM 50.9°F10.5°C 36.2°F2.3°C 57% 3.5 mph W5.6 kmh W 3.5 mph5.6 kmh 29.49 in998.6 mb - 0.00 in0.0 mm 0.00 in0.0 mm
11:00 PM 50.9°F10.5°C 36.6°F2.6°C 58% 2.3 mph WNW3.7 kmh WNW 4.6 mph7.4 kmh 29.50 in999.0 mb - 0.00 in0.0 mm 0.00 in0.0 mm
11:10 PM 50.9°F10.5°C 37.5°F3.1°C 60% 3.5 mph NW5.6 kmh NW 5.8 mph9.3 kmh 29.50 in999.0 mb - 0.00 in0.0 mm 0.00 in0.0 mm
11:15 PM 50.7°F10.4°C 36.9°F2.7°C 59% 3.5 mph WNW5.6 kmh WNW 5.8 mph9.3 kmh 29.49 in998.6 mb - 0.00 in0.0 mm 0.00 in0.0 mm
11:20 PM 50.5°F10.3°C 36.7°F2.6°C 59% 3.5 mph NW5.6 kmh NW 4.6 mph7.4 kmh 29.49 in998.6 mb - 0.00 in0.0 mm 0.00 in0.0 mm
11:25 PM 50.5°F10.3°C 37.2°F2.9°C 60% 3.5 mph W5.6 kmh W 3.5 mph5.6 kmh 29.49 in998.6 mb - 0.00 in0.0 mm 0.00 in0.0 mm
11:30 PM 50.4°F10.2°C 37.0°F2.8°C 60% 2.3 mph NW3.7 kmh NW 2.3 mph3.7 kmh 29.49 in998.6 mb - 0.00 in0.0 mm 0.00 in0.0 mm
11:35 PM 50.4°F10.2°C 37.4°F3.0°C 61% 2.3 mph NW3.7 kmh NW 2.3 mph3.7 kmh 29.49 in998.6 mb - 0.00 in0.0 mm 0.00 in0.0 mm
11:40 PM 50.2°F10.1°C 37.2°F2.9°C 61% 2.3 mph WNW3.7 kmh WNW 2.3 mph3.7 kmh 29.49 in998.6 mb - 0.00 in0.0 mm 0.00 in0.0 mm
11:45 PM 49.9°F9.9°C 37.0°F2.8°C 61% 3.5 mph W5.6 kmh W 3.5 mph5.6 kmh 29.50 in999.0 mb - 0.00 in0.0 mm 0.00 in0.0 mm
11:50 PM 49.6°F9.8°C 36.7°F2.6°C 61% 2.3 mph NW3.7 kmh NW 3.5 mph5.6 kmh 29.50 in999.0 mb - 0.00 in0.0 mm 0.00 in0.0 mm
11:55 PM 49.6°F9.8°C 37.6°F3.1°C 63% 3.5 mph WNW5.6 kmh WNW 3.5 mph5.6 kmh 29.50 in999.0 mb - 0.00 in0.0 mm 0.00 in0.0 mm